»·PEaware :: CANNON61 KLSV-KTNX

CANNON61 :: KLSV-KTNX

FLIGHT INFORMATION

Flight Status: Arrived
Operator: Unknown
More flights by this operator :: More flights under this callsign
Pilot: Anonymous 3903 (3903)
Aircraft: FAIRCHILD A-10 THUNDERBOLT 2
(A10)
More flights by this aircraft type
Origin: KLSV Nellis AFB
United States
Destination: KTNX Tonopah Test Range
United States
More flights between these airports :: More routes between these airports
Route: +FYTTR5 FYTTR BTY V135 TPH
File this flight plan on PilotEdge
Remarks:
Altitude:
(Current/Filed)
18,000ft
Speed:
(Current/Filed)
350kts
Departed: 07-Jul-19 12:27 PM
Arrived: 07-Jul-19 01:20 PM
Distance/Time
Traveled:
125nm/0:53
Distance/Time
To Go:
Arrived

Flight Plot

Page will automatically refresh every two minutes.

Flight plan parsing failed; only flown route is shown


Map Options




Map Legend


Flown Route
Filed Route
Departure Airport
Arrival Airport
Navaid (VOR, NDB)
Fix

Horizontal Profiles

Position Reports

Time Latitude Longitude Heading Altitude Ground
Speed
07-Jul-19 11:59 36.229865 -115.024945 86 1850ft 0kts
07-Jul-19 12:00 36.229865 -115.024945 86 1850ft 0kts
07-Jul-19 12:01 36.229865 -115.024945 86 1850ft 0kts
07-Jul-19 12:02 36.229865 -115.024945 86 1850ft 0kts
07-Jul-19 12:03 36.229865 -115.024945 86 1850ft 0kts
07-Jul-19 12:04 36.229865 -115.024945 86 1850ft 0kts
07-Jul-19 12:05 36.229865 -115.024945 86 1850ft 0kts
07-Jul-19 12:06 36.229865 -115.024945 86 1850ft 0kts
07-Jul-19 12:07 36.229865 -115.024945 86 1850ft 0kts
07-Jul-19 12:08 36.229865 -115.024945 86 1850ft 0kts
07-Jul-19 12:09 36.229865 -115.024945 86 1850ft 0kts
07-Jul-19 12:10 36.229865 -115.024945 86 1850ft 0kts
07-Jul-19 12:11 36.229865 -115.024945 86 1850ft 0kts
07-Jul-19 12:12 36.229865 -115.024945 86 1850ft 0kts
07-Jul-19 12:13 36.229865 -115.024945 86 1850ft 0kts
07-Jul-19 12:14 36.229865 -115.024945 86 1850ft 0kts
07-Jul-19 12:15 36.229865 -115.024945 86 1850ft 0kts
07-Jul-19 12:16 36.229865 -115.024945 86 1850ft 0kts
07-Jul-19 12:17 36.230102 -115.025174 268 1850ft 9kts
07-Jul-19 12:18 36.230139 -115.025943 296 1850ft 0kts
07-Jul-19 12:19 36.230493 -115.026456 313 1850ft 17kts
07-Jul-19 12:20 36.229243 -115.033277 220 1850ft 27kts
07-Jul-19 12:21 36.223562 -115.039431 220 1849ft 23kts
07-Jul-19 12:22 36.224389 -115.043276 322 1848ft 0kts
07-Jul-19 12:23 36.224389 -115.043276 322 1848ft 0kts
07-Jul-19 12:24 36.224389 -115.043276 322 1848ft 0kts
07-Jul-19 12:25 36.225216 -115.044055 39 1848ft 8kts
07-Jul-19 12:26 36.229384 -115.039515 40 1850ft 111kts
07-Jul-19 12:27 36.269111 -114.998056 41 2991ft 214kts
07-Jul-19 12:28 36.316304 -114.952978 28 5722ft 212kts
07-Jul-19 12:29 36.349002 -114.987171 237 7818ft 218kts
07-Jul-19 12:30 36.317410 -115.053603 230 9772ft 221kts
07-Jul-19 12:31 36.285302 -115.119972 244 11615ft 227kts
07-Jul-19 12:32 36.276827 -115.200803 273 13139ft 249kts
07-Jul-19 12:33 36.292846 -115.285852 276 14871ft 249kts
07-Jul-19 12:34 36.308815 -115.369727 276 16609ft 246kts
07-Jul-19 12:35 36.324329 -115.452955 275 18331ft 243kts
07-Jul-19 12:36 36.338627 -115.533819 272 19788ft 241kts
07-Jul-19 12:37 36.349078 -115.623442 268 20179ft 279kts
07-Jul-19 12:38 36.359512 -115.722387 282 20838ft 287kts
07-Jul-19 12:39 36.397253 -115.813706 290 21269ft 307kts
07-Jul-19 12:40 36.434338 -115.912047 287 21273ft 318kts
07-Jul-19 12:41 36.471244 -116.012078 287 21271ft 318kts
07-Jul-19 12:42 36.508179 -116.112316 287 21272ft 318kts
07-Jul-19 12:43 36.545637 -116.212451 290 21281ft 319kts
07-Jul-19 12:44 36.589777 -116.309192 292 21264ft 319kts
07-Jul-19 12:45 36.634028 -116.405666 292 21264ft 320kts
07-Jul-19 12:46 36.678345 -116.502255 292 21265ft 321kts
07-Jul-19 12:47 36.726574 -116.596871 297 21255ft 324kts
07-Jul-19 12:48 36.776161 -116.690678 293 21256ft 321kts
07-Jul-19 12:49 36.831135 -116.778892 320 21228ft 336kts
07-Jul-19 12:50 36.905434 -116.848509 316 21258ft 332kts
07-Jul-19 12:51 36.979542 -116.918463 316 21256ft 332kts
07-Jul-19 12:52 37.053443 -116.989023 316 21259ft 333kts
07-Jul-19 12:53 37.127472 -117.059702 316 21259ft 333kts
07-Jul-19 12:54 37.200482 -117.131498 315 21254ft 332kts
07-Jul-19 12:55 37.272948 -117.204235 315 21258ft 333kts
07-Jul-19 12:56 37.349679 -117.272144 326 21306ft 338kts
07-Jul-19 12:57 37.438590 -117.316409 335 21300ft 344kts
07-Jul-19 12:58 37.529252 -117.356404 335 21299ft 343kts
07-Jul-19 12:59 37.617460 -117.401996 328 21299ft 340kts
07-Jul-19 13:00 37.708941 -117.416434 28 21277ft 354kts
07-Jul-19 13:01 37.779684 -117.332791 52 19743ft 348kts
07-Jul-19 13:02 37.841656 -117.238322 48 17064ft 343kts
07-Jul-19 13:03 37.907064 -117.157377 42 13991ft 325kts
07-Jul-19 13:04 37.974101 -117.086959 37 11461ft 297kts
07-Jul-19 13:05 38.029579 -117.021812 84 10910ft 275kts
07-Jul-19 13:06 37.988989 -116.943534 134 10780ft 280kts
07-Jul-19 13:07 37.933682 -116.876526 147 10571ft 258kts
07-Jul-19 13:08 37.871039 -116.827749 151 10560ft 278kts
07-Jul-19 13:09 37.800283 -116.783415 161 10591ft 286kts
07-Jul-19 13:10 37.736455 -116.811447 254 10602ft 292kts
07-Jul-19 13:11 37.787230 -116.885578 338 10588ft 325kts
07-Jul-19 13:12 37.872515 -116.924256 353 10595ft 327kts
07-Jul-19 13:13 37.909717 -116.848303 131 9846ft 310kts
07-Jul-19 13:15 37.831619 -116.797582 159 8144ft 306kts
07-Jul-19 13:16 37.796398 -116.811943 307 7440ft 216kts
07-Jul-19 13:17 37.839148 -116.834479 59 7237ft 196kts
07-Jul-19 13:18 37.823315 -116.793496 162 5746ft 133kts
07-Jul-19 13:19 37.799003 -116.780756 159 5541ft 47kts
07-Jul-19 13:20 37.797214 -116.777104 67 5541ft 14kts
07-Jul-19 13:21 37.798822 -116.774850 67 5541ft 0kts
07-Jul-19 13:22 37.798822 -116.774850 67 5541ft 0kts
07-Jul-19 13:23 37.798822 -116.774850 67 5541ft 0kts
07-Jul-19 13:24 37.798822 -116.774850 67 5541ft 0kts
07-Jul-19 13:25 37.798823 -116.774850 67 5541ft 0kts
07-Jul-19 13:26 37.798822 -116.774850 67 5541ft 0kts
07-Jul-19 13:27 37.798822 -116.774850 67 5541ft 0kts
07-Jul-19 13:28 37.798822 -116.774850 67 5541ft 0kts
07-Jul-19 13:29 37.798822 -116.774850 67 5541ft 0kts

Navigation Log

Ident Type
Flight plan parsing failed, navigation log unavailable